Marola — IBFL — position and weather

sailwx.info

Track history (hours):
 
Tides and Currents Weather Stations Pressure Air Temp Water Temp Dewpoint Dewpoint Depression Visibility Wind Speed Wind Dir Waves Ship Positions

Marola

Last reported at 2018-Jun-01 19:23 UTC. Time now 2018-Jun-19 18:28 UTC.
Position N 28°51' W 093°55'.
Warning: this ship's position is 17 days out of date.

Length 181 m; draft 7.6 m.

Type: Tanker. MMSI: 247094900.

Date/timePositionNaut miles runAvg speedWind from/ knotsBaromVisibWave heightAir tempDewpointWater temp
2018-Jun-01 19:23N 28°51' W 093°55'3315.0
2018-Jun-01 17:10N 29°10' W 094°27'314.8
2018-Jun-01 16:59N 29°11' W 094°29'711.9
2018-Jun-01 16:25N 29°16' W 094°35'5 9.7
2018-Jun-01 15:54N 29°19' W 094°39'511.3
2018-Jun-01 15:30N 29°21' W 094°44'510.3
2018-Jun-01 14:59N 29°24' W 094°49'511.4
2018-Jun-01 14:30N 29°29' W 094°52'611.8
2018-Jun-01 14:00N 29°34' W 094°55'511.1
2018-Jun-01 13:30N 29°39' W 094°58'510.4
2018-Jun-01 13:00N 29°43' W 095°01'4 7.6
2018-Jun-01 12:30N 29°46' W 095°05'4 7.3
2018-Jun-01 12:00N 29°44' W 095°08'1 0.0
2018-May-31 15:25N 29°44' W 095°09'0 0.0
2018-May-31 15:00N 29°44' W 095°09'1 1.6
2018-May-31 14:30N 29°44' W 095°08'3 5.5
2018-May-31 13:59N 29°46' W 095°05'3 7.2
2018-May-31 13:30N 29°44' W 095°02'4 7.8
2018-May-31 13:00N 29°41' W 094°59'611.6
2018-May-31 12:30N 29°36' W 094°57'713.1
2018-May-31 12:00N 29°30' W 094°52'714.5
2018-May-31 11:30N 29°24' W 094°49'713.4
2018-May-31 11:00N 29°21' W 094°42'711.9
2018-May-31 10:27N 29°17' W 094°35'4 8.4
2018-May-31 10:00N 29°16' W 094°31'0 0.4
2018-May-31 09:23N 29°16' W 094°31'0 0.0
2018-May-31 07:56N 29°16' W 094°31'0 0.0
2018-May-31 07:14N 29°16' W 094°31'0 0.1
2018-May-31 06:47N 29°16' W 094°31'0 0.1
2018-May-31 06:23N 29°16' W 094°31'0 0.1
2018-May-31 05:56N 29°16' W 094°31'0 0.1
2018-May-31 05:19N 29°16' W 094°31'1 1.7
2018-May-31 05:00N 29°16' W 094°31'5 9.8
2018-May-31 04:30N 29°12' W 094°27'714.3
2018-May-31 03:59N 29°08' W 094°20'814.3
2018-May-31 03:25N 29°03' W 094°13'614.7
2018-May-31 03:00N 28°60' W 094°07'914.8
2018-May-31 02:25N 28°55' W 093°59'715.4
2018-May-31 01:58N 28°51' W 093°52'715.5
2018-May-31 01:30N 28°47' W 093°46'2515.5
2018-May-30 23:54N 28°32' W 093°23'816.0
2018-May-30 23:24N 28°27' W 093°15'  
Track history (hours):
 
Tides and Currents Weather Stations Pressure Air Temp Water Temp Dewpoint Dewpoint Depression Visibility Wind Speed Wind Dir Waves Ship Positions

Marola

Last reported at 2018-Jun-01 19:23 UTC. Time now 2018-Jun-19 18:28 UTC.
Position N 28°51' W 093°55'.
Warning: this ship's position is 17 days out of date.

Length 181 m; draft 7.6 m.

Type: Tanker. MMSI: 247094900.

Date/timePositionNaut miles runAvg speedWind from/ knotsBaromVisibWave heightAir tempDewpointWater temp
2018-Jun-01 19:23N 28°51' W 093°55'3315.0
2018-Jun-01 17:10N 29°10' W 094°27'314.8
2018-Jun-01 16:59N 29°11' W 094°29'711.9
2018-Jun-01 16:25N 29°16' W 094°35'5 9.7
2018-Jun-01 15:54N 29°19' W 094°39'511.3
2018-Jun-01 15:30N 29°21' W 094°44'510.3
2018-Jun-01 14:59N 29°24' W 094°49'511.4
2018-Jun-01 14:30N 29°29' W 094°52'611.8
2018-Jun-01 14:00N 29°34' W 094°55'511.1
2018-Jun-01 13:30N 29°39' W 094°58'510.4
2018-Jun-01 13:00N 29°43' W 095°01'4 7.6
2018-Jun-01 12:30N 29°46' W 095°05'4 7.3
2018-Jun-01 12:00N 29°44' W 095°08'1 0.0
2018-May-31 15:25N 29°44' W 095°09'0 0.0
2018-May-31 15:00N 29°44' W 095°09'1 1.6
2018-May-31 14:30N 29°44' W 095°08'3 5.5
2018-May-31 13:59N 29°46' W 095°05'3 7.2
2018-May-31 13:30N 29°44' W 095°02'4 7.8
2018-May-31 13:00N 29°41' W 094°59'611.6
2018-May-31 12:30N 29°36' W 094°57'713.1
2018-May-31 12:00N 29°30' W 094°52'714.5
2018-May-31 11:30N 29°24' W 094°49'713.4
2018-May-31 11:00N 29°21' W 094°42'711.9
2018-May-31 10:27N 29°17' W 094°35'4 8.4
2018-May-31 10:00N 29°16' W 094°31'0 0.4
2018-May-31 09:23N 29°16' W 094°31'0 0.0
2018-May-31 07:56N 29°16' W 094°31'0 0.0
2018-May-31 07:14N 29°16' W 094°31'0 0.1
2018-May-31 06:47N 29°16' W 094°31'0 0.1
2018-May-31 06:23N 29°16' W 094°31'0 0.1
2018-May-31 05:56N 29°16' W 094°31'0 0.1
2018-May-31 05:19N 29°16' W 094°31'1 1.7
2018-May-31 05:00N 29°16' W 094°31'5 9.8
2018-May-31 04:30N 29°12' W 094°27'714.3
2018-May-31 03:59N 29°08' W 094°20'814.3
2018-May-31 03:25N 29°03' W 094°13'614.7
2018-May-31 03:00N 28°60' W 094°07'914.8
2018-May-31 02:25N 28°55' W 093°59'715.4
2018-May-31 01:58N 28°51' W 093°52'715.5
2018-May-31 01:30N 28°47' W 093°46'2515.5
2018-May-30 23:54N 28°32' W 093°23'816.0
2018-May-30 23:24N 28°27' W 093°15'  

Dump ship's entire track history